createdAt,value
2023-01-29T00:00:12.602Z,49.47
2023-01-29T00:02:39.886Z,49.80
2023-01-29T00:05:26.128Z,45.08
2023-01-29T00:07:55.794Z,45.08
2023-01-29T00:10:24.728Z,48.25
2023-01-29T00:12:52.705Z,48.17
2023-01-29T00:15:20.744Z,46.58
2023-01-29T00:17:48.079Z,47.33
2023-01-29T00:20:15.946Z,46.38
2023-01-29T00:22:43.565Z,46.60
2023-01-29T00:25:12.053Z,45.50
2023-01-29T00:27:39.322Z,44.22
2023-01-29T00:30:12.939Z,46.08
2023-01-29T00:32:41.119Z,46.33
2023-01-29T00:35:09.496Z,50.22
2023-01-29T00:37:37.428Z,48.03
2023-01-29T00:40:05.872Z,45.42
2023-01-29T00:42:51.891Z,42.95
2023-01-29T00:45:19.125Z,45.38
2023-01-29T00:47:46.392Z,51.78
2023-01-29T00:50:14.166Z,44.85
2023-01-29T00:52:41.956Z,44.40
2023-01-29T00:55:11.841Z,43.33
2023-01-29T00:57:39.276Z,47.83
2023-01-29T01:00:09.890Z,47.83
2023-01-29T01:02:56.174Z,46.20
2023-01-29T01:05:23.760Z,41.70
2023-01-29T01:07:53.591Z,43.90
2023-01-29T01:10:27.932Z,42.88
2023-01-29T01:15:30.376Z,46.75
2023-01-29T01:17:59.833Z,46.30
2023-01-29T01:20:29.520Z,46.00
2023-01-29T01:22:56.989Z,46.90
2023-01-29T01:25:26.314Z,43.83
2023-01-29T01:27:58.111Z,48.50
2023-01-29T01:30:26.395Z,47.65
2023-01-29T01:32:54.068Z,45.78
2023-01-29T01:35:21.401Z,42.42
2023-01-29T01:37:49.656Z,42.72
2023-01-29T01:40:23.535Z,45.42
2023-01-29T01:42:57.000Z,41.08
2023-01-29T01:45:27.089Z,48.78
2023-01-29T01:48:17.454Z,48.95
2023-01-29T01:51:03.211Z,48.85
2023-01-29T01:53:38.730Z,50.78
2023-01-29T01:56:11.213Z,48.17
2023-01-29T01:58:43.777Z,47.90
2023-01-29T02:01:12.732Z,49.45
2023-01-29T02:04:08.294Z,47.45
2023-01-29T02:06:57.748Z,42.67
2023-01-29T02:09:59.323Z,44.08
2023-01-29T02:12:28.709Z,47.40
2023-01-29T02:14:56.935Z,47.70
2023-01-29T02:17:24.356Z,46.85
2023-01-29T02:19:57.601Z,45.95
2023-01-29T02:22:56.138Z,45.20
2023-01-29T02:25:43.198Z,46.75
2023-01-29T02:28:49.069Z,43.20
2023-01-29T02:31:45.624Z,43.72
2023-01-29T02:34:52.986Z,44.97
2023-01-29T02:37:31.885Z,40.83
2023-01-29T02:40:12.208Z,45.08
2023-01-29T02:42:52.833Z,41.97
2023-01-29T02:45:32.673Z,44.45
2023-01-29T02:48:02.324Z,44.90
2023-01-29T02:50:51.929Z,44.25
2023-01-29T02:53:25.909Z,43.85
2023-01-29T02:55:59.176Z,41.60
2023-01-29T02:58:42.586Z,43.90
2023-01-29T03:01:36.525Z,38.20
2023-01-29T03:04:12.486Z,41.47
2023-01-29T03:06:44.679Z,41.28
2023-01-29T03:09:41.780Z,41.15
2023-01-29T03:12:36.821Z,38.95
2023-01-29T03:15:12.526Z,39.83
2023-01-29T03:17:58.196Z,41.17
2023-01-29T03:20:32.731Z,46.10
2023-01-29T03:23:11.017Z,39.50
2023-01-29T03:25:59.782Z,39.80
2023-01-29T03:28:50.326Z,41.78
2023-01-29T03:31:37.290Z,41.42
2023-01-29T03:34:16.378Z,39.78
2023-01-29T03:36:57.658Z,42.33
2023-01-29T03:39:28.575Z,38.85
2023-01-29T03:42:42.554Z,40.03
2023-01-29T03:45:27.935Z,39.63
2023-01-29T03:48:16.363Z,39.67
2023-01-29T03:51:17.036Z,40.47
2023-01-29T03:54:08.296Z,39.97
2023-01-29T03:57:07.068Z,43.38
2023-01-29T03:59:58.773Z,40.47
2023-01-29T04:03:04.391Z,41.70
2023-01-29T04:05:43.477Z,39.08
2023-01-29T04:10:54.752Z,38.45
2023-01-29T04:13:24.080Z,47.45
2023-01-29T04:15:58.021Z,50.22
2023-01-29T04:18:48.435Z,44.80
2023-01-29T04:21:17.461Z,49.05
2023-01-29T04:23:44.868Z,46.25
2023-01-29T04:26:27.263Z,47.50
2023-01-29T04:29:30.245Z,45.03
2023-01-29T04:32:30.166Z,45.70
2023-01-29T04:35:15.551Z,46.75
2023-01-29T04:37:48.250Z,46.25
2023-01-29T04:40:15.958Z,43.90
2023-01-29T04:43:09.368Z,46.30
2023-01-29T04:46:01.620Z,45.38
2023-01-29T04:48:40.350Z,47.05
2023-01-29T04:51:16.870Z,48.97
2023-01-29T04:53:57.116Z,45.13
2023-01-29T04:56:37.072Z,46.42
2023-01-29T04:59:17.813Z,48.67
2023-01-29T05:01:45.584Z,47.03
2023-01-29T05:04:16.594Z,51.70
2023-01-29T05:06:46.647Z,47.95
2023-01-29T05:09:15.721Z,47.45
2023-01-29T05:11:45.164Z,46.70
2023-01-29T05:14:15.465Z,49.67
2023-01-29T05:16:49.506Z,48.22
2023-01-29T05:19:17.606Z,49.55
2023-01-29T05:21:48.799Z,49.58
2023-01-29T05:24:22.722Z,47.90
2023-01-29T05:27:11.115Z,54.10
2023-01-29T05:29:42.582Z,48.60
2023-01-29T05:32:09.868Z,49.45
2023-01-29T05:34:37.233Z,46.95
2023-01-29T05:37:04.977Z,48.63
2023-01-29T05:39:32.348Z,47.40
2023-01-29T05:41:59.828Z,48.28
2023-01-29T05:44:27.138Z,46.88
2023-01-29T05:46:54.477Z,53.00
2023-01-29T05:49:22.503Z,48.25
2023-01-29T05:51:49.842Z,52.40
2023-01-29T05:54:17.140Z,49.85
2023-01-29T05:56:44.404Z,53.63
2023-01-29T05:59:11.741Z,53.00
2023-01-29T06:01:39.313Z,50.60
2023-01-29T06:04:06.644Z,48.58
2023-01-29T06:06:33.984Z,48.97
2023-01-29T06:09:01.280Z,53.13
2023-01-29T06:11:29.086Z,48.90
2023-01-29T06:13:56.306Z,47.85
2023-01-29T06:16:23.661Z,48.20
2023-01-29T06:18:51.054Z,49.60
2023-01-29T06:21:20.112Z,51.95
2023-01-29T06:23:47.624Z,48.25
2023-01-29T06:26:16.097Z,46.40
2023-01-29T06:28:45.100Z,49.22
2023-01-29T06:31:30.448Z,43.45
2023-01-29T06:33:59.671Z,47.65
2023-01-29T06:36:27.175Z,48.08
2023-01-29T06:38:54.491Z,45.58
2023-01-29T06:41:25.193Z,47.15
2023-01-29T06:43:52.823Z,47.45
2023-01-29T06:46:20.447Z,49.70
2023-01-29T06:48:47.795Z,44.03
2023-01-29T06:51:15.056Z,47.22
2023-01-29T06:53:44.104Z,46.95
2023-01-29T06:56:13.099Z,44.03
2023-01-29T06:58:40.367Z,49.17
2023-01-29T07:01:10.180Z,45.05
2023-01-29T07:03:37.932Z,47.22
2023-01-29T07:06:06.052Z,44.95
2023-01-29T07:08:36.880Z,47.83
2023-01-29T07:11:05.299Z,47.13
2023-01-29T07:13:33.440Z,44.88
2023-01-29T07:16:02.008Z,45.83
2023-01-29T07:18:30.895Z,46.08
2023-01-29T07:20:58.517Z,45.92
2023-01-29T07:23:25.904Z,46.00
2023-01-29T07:25:53.401Z,45.85
2023-01-29T07:28:20.860Z,43.80
2023-01-29T07:30:48.264Z,45.17
2023-01-29T07:33:15.605Z,40.72
2023-01-29T07:35:43.702Z,45.63
2023-01-29T07:38:11.773Z,45.10
2023-01-29T07:40:39.128Z,43.83
2023-01-29T07:43:08.173Z,44.72
2023-01-29T07:45:37.425Z,46.88
2023-01-29T07:48:06.736Z,43.35
2023-01-29T07:50:35.070Z,45.40
2023-01-29T07:53:02.873Z,43.58
2023-01-29T07:55:30.958Z,42.47
2023-01-29T07:58:00.092Z,44.15
2023-01-29T08:00:28.364Z,44.85
2023-01-29T08:03:06.542Z,39.25
2023-01-29T08:05:34.218Z,42.42
2023-01-29T08:08:06.946Z,44.00
2023-01-29T08:10:36.418Z,47.30
2023-01-29T08:13:05.684Z,40.50
2023-01-29T08:15:33.518Z,44.90
2023-01-29T08:18:04.463Z,40.25
2023-01-29T08:20:31.795Z,44.63
2023-01-29T08:23:13.228Z,41.20
2023-01-29T08:25:40.574Z,45.42
2023-01-29T08:28:08.041Z,42.55
2023-01-29T08:30:35.843Z,40.72
2023-01-29T08:33:04.229Z,42.03
2023-01-29T08:35:31.524Z,41.92
2023-01-29T08:38:00.825Z,41.00
2023-01-29T08:40:31.659Z,40.72
2023-01-29T08:43:02.243Z,42.05
2023-01-29T08:45:33.652Z,43.13
2023-01-29T08:48:01.721Z,38.63
2023-01-29T08:50:33.009Z,43.20
2023-01-29T08:53:01.634Z,41.45
2023-01-29T08:55:29.552Z,41.88
2023-01-29T08:57:59.546Z,39.72
2023-01-29T09:00:27.002Z,41.38
2023-01-29T09:02:54.243Z,42.15
2023-01-29T09:05:21.550Z,41.38
2023-01-29T09:07:48.798Z,39.13
2023-01-29T09:10:16.614Z,39.45
2023-01-29T09:12:43.950Z,38.58
2023-01-29T09:15:11.900Z,39.95
2023-01-29T09:17:39.222Z,38.75
2023-01-29T09:20:07.106Z,40.95
2023-01-29T09:22:34.596Z,39.85
2023-01-29T09:25:02.505Z,38.40
2023-01-29T09:27:29.878Z,36.53
2023-01-29T09:29:57.151Z,42.17
2023-01-29T09:32:52.077Z,42.55
2023-01-29T09:35:11.860Z,37.00
2023-01-29T09:37:39.215Z,42.00
2023-01-29T09:40:07.406Z,36.40
2023-01-29T09:43:06.657Z,35.50
2023-01-29T09:45:35.300Z,39.33
2023-01-29T09:48:05.627Z,38.95
2023-01-29T09:50:41.447Z,36.33
2023-01-29T09:53:29.446Z,38.67
2023-01-29T09:56:04.850Z,40.03
2023-01-29T09:58:35.873Z,37.65
2023-01-29T10:01:03.121Z,36.53
2023-01-29T10:03:55.889Z,36.08
2023-01-29T10:06:37.144Z,39.10
2023-01-29T10:09:34.864Z,37.28
2023-01-29T10:12:27.152Z,33.92
2023-01-29T10:15:03.904Z,35.50
2023-01-29T10:17:55.731Z,38.78
2023-01-29T10:21:13.216Z,31.67
2023-01-29T10:23:50.381Z,36.58
2023-01-29T10:26:21.049Z,33.08
2023-01-29T10:28:50.823Z,33.65
2023-01-29T10:31:36.418Z,34.22
2023-01-29T10:34:12.235Z,33.33
2023-01-29T10:36:46.283Z,34.80
2023-01-29T10:39:22.084Z,35.35
2023-01-29T10:42:27.780Z,34.60
2023-01-29T10:47:51.495Z,33.30
2023-01-29T10:50:40.547Z,31.88
2023-01-29T10:53:21.137Z,30.90
2023-01-29T10:55:54.765Z,31.98
2023-01-29T10:58:48.939Z,29.93
2023-01-29T11:01:16.414Z,32.40
2023-01-29T11:03:43.816Z,33.40
2023-01-29T11:06:20.228Z,31.80
2023-01-29T11:08:56.585Z,31.83
2023-01-29T11:11:33.583Z,30.83
2023-01-29T11:14:08.872Z,34.30
2023-01-29T11:16:46.848Z,32.22
2023-01-29T11:19:15.145Z,34.80
2023-01-29T11:21:57.063Z,32.65
2023-01-29T11:24:25.243Z,31.98
2023-01-29T11:26:57.477Z,31.40
2023-01-29T11:29:27.883Z,34.17
2023-01-29T11:31:57.448Z,34.97
2023-01-29T11:34:27.635Z,33.38
2023-01-29T11:37:03.284Z,33.90
2023-01-29T11:39:32.435Z,35.33
2023-01-29T11:42:04.746Z,34.50
2023-01-29T11:44:42.267Z,32.15
2023-01-29T11:47:25.560Z,32.53
2023-01-29T11:49:54.284Z,30.10
2023-01-29T11:52:24.520Z,31.02
2023-01-29T11:55:05.973Z,31.20
2023-01-29T11:57:38.735Z,31.80
2023-01-29T12:00:21.907Z,30.38
2023-01-29T12:02:55.472Z,29.95
2023-01-29T12:05:25.068Z,29.05
2023-01-29T12:07:55.506Z,28.92
2023-01-29T12:10:34.170Z,28.65
2023-01-29T12:13:15.660Z,28.75
2023-01-29T12:15:43.437Z,29.05
2023-01-29T12:18:32.167Z,28.52
2023-01-29T12:21:03.398Z,30.88
2023-01-29T12:24:22.214Z,30.30
2023-01-29T12:27:00.677Z,28.38
2023-01-29T12:29:53.820Z,28.73
2023-01-29T12:32:29.978Z,27.77
2023-01-29T12:35:17.487Z,31.60
2023-01-29T12:38:00.817Z,31.35
2023-01-29T12:40:48.217Z,27.85
2023-01-29T12:43:23.937Z,27.50
2023-01-29T12:45:55.137Z,27.88
2023-01-29T12:48:43.841Z,28.15
2023-01-29T12:51:16.841Z,25.08
2023-01-29T12:53:49.970Z,30.73
2023-01-29T12:56:41.090Z,29.33
2023-01-29T12:59:28.966Z,35.80
2023-01-29T13:02:06.657Z,29.25
2023-01-29T13:04:42.280Z,26.02
2023-01-29T13:07:28.280Z,27.27
2023-01-29T13:10:01.708Z,28.40
2023-01-29T13:12:31.016Z,24.73
2023-01-29T13:15:02.883Z,26.95
2023-01-29T13:17:47.844Z,26.85
2023-01-29T13:22:52.543Z,27.45
2023-01-29T13:25:20.995Z,27.13
2023-01-29T13:27:49.276Z,24.73
2023-01-29T13:30:29.165Z,30.15
2023-01-29T13:33:09.447Z,23.77
2023-01-29T13:35:42.970Z,27.48
2023-01-29T13:38:36.413Z,28.77
2023-01-29T13:41:08.659Z,26.48
2023-01-29T13:43:38.586Z,26.35
2023-01-29T13:46:13.877Z,27.65
2023-01-29T13:48:43.758Z,25.58
2023-01-29T13:51:17.006Z,27.77
2023-01-29T13:53:57.125Z,25.58
2023-01-29T13:56:33.223Z,25.98
2023-01-29T13:59:05.403Z,25.80
2023-01-29T14:01:48.096Z,25.08
2023-01-29T14:04:29.134Z,25.63
2023-01-29T14:07:06.089Z,26.73
2023-01-29T14:09:39.703Z,23.77
2023-01-29T14:12:33.372Z,27.75
2023-01-29T14:15:23.788Z,26.88
2023-01-29T14:18:19.630Z,25.50
2023-01-29T14:21:05.886Z,24.88
2023-01-29T14:23:41.486Z,26.13
2023-01-29T14:26:34.396Z,26.63
2023-01-29T14:29:05.241Z,25.30
2023-01-29T14:31:37.660Z,25.13
2023-01-29T14:34:13.449Z,25.10
2023-01-29T14:36:46.285Z,24.52
2023-01-29T14:39:25.744Z,25.35
2023-01-29T14:41:53.374Z,26.98
2023-01-29T14:44:45.775Z,25.80
2023-01-29T14:47:36.324Z,25.65
2023-01-29T14:50:29.502Z,27.35
2023-01-29T14:53:25.430Z,23.67
2023-01-29T14:56:04.068Z,25.60
2023-01-29T14:58:41.373Z,24.17
2023-01-29T15:01:22.263Z,27.77
2023-01-29T15:03:58.637Z,28.48
2023-01-29T15:06:45.807Z,29.23
2023-01-29T15:09:36.716Z,26.25
2023-01-29T15:12:17.349Z,26.92
2023-01-29T15:15:02.041Z,26.98
2023-01-29T15:17:48.385Z,25.45
2023-01-29T15:20:28.588Z,25.92
2023-01-29T15:22:56.028Z,26.40
2023-01-29T15:25:23.959Z,27.42
2023-01-29T15:27:51.480Z,29.35
2023-01-29T15:30:23.006Z,26.13
2023-01-29T15:32:50.744Z,28.40
2023-01-29T15:35:36.383Z,30.73
2023-01-29T15:38:18.305Z,29.70
2023-01-29T15:40:56.679Z,30.55
2023-01-29T15:43:29.692Z,29.42
2023-01-29T15:46:01.484Z,31.67
2023-01-29T15:48:37.679Z,31.27
2023-01-29T15:51:11.962Z,33.72
2023-01-29T15:53:48.483Z,28.40
2023-01-29T15:56:26.079Z,29.65
2023-01-29T15:58:55.038Z,28.10
2023-01-29T16:01:22.410Z,32.15
2023-01-29T16:03:50.639Z,29.40
2023-01-29T16:06:19.035Z,32.35
2023-01-29T16:08:54.489Z,32.92
2023-01-29T16:11:22.337Z,30.80
2023-01-29T16:13:50.787Z,29.63
2023-01-29T16:16:25.755Z,27.42
2023-01-29T16:19:00.418Z,28.23
2023-01-29T16:21:39.829Z,27.05
2023-01-29T16:24:13.952Z,27.30
2023-01-29T16:26:47.507Z,27.25
2023-01-29T16:29:19.157Z,30.35
2023-01-29T16:31:48.395Z,28.45
2023-01-29T16:34:26.624Z,30.30
2023-01-29T16:36:55.042Z,27.92
2023-01-29T16:39:27.602Z,30.45
2023-01-29T16:42:21.458Z,29.17
2023-01-29T16:45:24.975Z,27.17
2023-01-29T16:48:30.542Z,27.35
2023-01-29T16:51:14.270Z,27.63
2023-01-29T16:53:56.250Z,28.92
2023-01-29T16:56:24.738Z,29.67
2023-01-29T16:58:53.902Z,27.48
2023-01-29T17:01:24.389Z,29.80
2023-01-29T17:03:59.583Z,29.45
2023-01-29T17:06:27.723Z,30.50
2023-01-29T17:08:55.449Z,28.40
2023-01-29T17:11:31.662Z,29.70
2023-01-29T17:13:59.651Z,32.85
2023-01-29T17:16:33.117Z,28.25
2023-01-29T17:19:01.092Z,28.60
2023-01-29T17:21:31.630Z,29.17
2023-01-29T17:23:58.945Z,38.78
2023-01-29T17:26:26.358Z,31.52
2023-01-29T17:28:54.904Z,26.95
2023-01-29T17:31:22.353Z,29.52
2023-01-29T17:33:49.755Z,28.80
2023-01-29T17:36:18.044Z,29.50
2023-01-29T17:38:45.937Z,31.00
2023-01-29T17:41:26.824Z,32.53
2023-01-29T17:43:54.181Z,31.42
2023-01-29T17:46:22.685Z,29.73
2023-01-29T17:48:53.997Z,30.45
2023-01-29T17:51:23.443Z,29.15
2023-01-29T17:53:52.112Z,29.20
2023-01-29T17:56:27.768Z,29.17
2023-01-29T17:58:55.257Z,30.38
2023-01-29T18:01:22.624Z,31.27
2023-01-29T18:03:50.129Z,29.13
2023-01-29T18:06:27.947Z,28.98
2023-01-29T18:08:56.480Z,29.42
2023-01-29T18:11:24.218Z,27.63
2023-01-29T18:13:51.544Z,26.77
2023-01-29T18:16:21.590Z,29.02
2023-01-29T18:18:50.032Z,25.45
2023-01-29T18:21:17.519Z,26.55
2023-01-29T18:23:44.872Z,27.30
2023-01-29T18:26:13.153Z,26.02
2023-01-29T18:28:43.308Z,22.80
2023-01-29T18:31:13.045Z,29.23
2023-01-29T18:33:41.185Z,25.50
2023-01-29T18:36:08.812Z,30.13
2023-01-29T18:38:37.196Z,24.95
2023-01-29T18:41:12.530Z,27.90
2023-01-29T18:43:41.478Z,26.88
2023-01-29T18:46:09.386Z,24.65
2023-01-29T18:48:37.121Z,25.02
2023-01-29T18:51:04.881Z,24.60
2023-01-29T18:53:33.453Z,25.25
2023-01-29T18:56:05.765Z,23.20
2023-01-29T18:58:36.918Z,25.10
2023-01-29T19:01:10.080Z,24.10
2023-01-29T19:03:38.979Z,23.02
2023-01-29T19:06:08.549Z,23.10
2023-01-29T19:08:36.505Z,23.27
2023-01-29T19:11:07.978Z,23.45
2023-01-29T19:13:36.304Z,24.65
2023-01-29T19:16:07.692Z,23.13
2023-01-29T19:18:35.287Z,25.50
2023-01-29T19:21:07.577Z,22.20
2023-01-29T19:23:34.949Z,22.02
2023-01-29T19:26:02.457Z,23.30
2023-01-29T19:28:29.833Z,24.42
2023-01-29T19:30:58.270Z,23.88
2023-01-29T19:33:27.699Z,25.35
2023-01-29T19:36:01.314Z,22.52
2023-01-29T19:38:29.233Z,24.87
2023-01-29T19:40:56.529Z,27.60
2023-01-29T19:43:23.913Z,28.65
2023-01-29T19:46:01.217Z,26.17
2023-01-29T19:48:28.932Z,27.50
2023-01-29T19:51:00.595Z,24.58
2023-01-29T19:53:29.128Z,29.25
2023-01-29T19:56:02.410Z,24.20
2023-01-29T19:58:30.468Z,26.02
2023-01-29T20:00:59.353Z,26.73
2023-01-29T20:03:27.824Z,25.10
2023-01-29T20:06:05.727Z,23.92
2023-01-29T20:08:34.755Z,23.27
2023-01-29T20:11:02.667Z,22.35
2023-01-29T20:13:30.058Z,26.92
2023-01-29T20:15:57.520Z,25.67
2023-01-29T20:18:24.931Z,26.10
2023-01-29T20:20:53.085Z,24.55
2023-01-29T20:23:36.744Z,25.10
2023-01-29T20:26:06.051Z,25.30
2023-01-29T20:28:34.481Z,23.95
2023-01-29T20:31:02.324Z,24.90
2023-01-29T20:33:31.935Z,25.08
2023-01-29T20:36:04.388Z,25.33
2023-01-29T20:38:33.883Z,25.95
2023-01-29T20:41:14.022Z,23.42
2023-01-29T20:43:42.759Z,24.05
2023-01-29T20:46:10.500Z,27.90
2023-01-29T20:48:38.340Z,25.98
2023-01-29T20:51:07.847Z,26.05
2023-01-29T20:53:36.013Z,25.75
2023-01-29T20:56:04.631Z,26.30
2023-01-29T20:58:32.893Z,25.48
2023-01-29T21:01:00.455Z,22.98
2023-01-29T21:03:27.946Z,27.80
2023-01-29T21:05:58.956Z,25.65
2023-01-29T21:08:26.248Z,24.38
2023-01-29T21:10:53.754Z,23.35
2023-01-29T21:13:21.078Z,22.60
2023-01-29T21:15:50.824Z,22.85
2023-01-29T21:18:18.437Z,25.77
2023-01-29T21:20:46.102Z,22.80
2023-01-29T21:23:13.351Z,23.45
2023-01-29T21:25:41.198Z,24.75
2023-01-29T21:28:08.502Z,24.73
2023-01-29T21:30:35.784Z,24.27
2023-01-29T21:33:04.066Z,26.42
2023-01-29T21:35:31.848Z,23.95
2023-01-29T21:37:59.155Z,24.52
2023-01-29T21:40:26.557Z,28.00
2023-01-29T21:43:12.010Z,25.45
2023-01-29T21:45:40.471Z,25.88
2023-01-29T21:48:09.013Z,26.02
2023-01-29T21:50:37.262Z,28.80
2023-01-29T21:53:07.006Z,23.17
2023-01-29T21:55:34.370Z,26.13
2023-01-29T21:58:01.787Z,26.13
2023-01-29T22:00:29.056Z,28.92
2023-01-29T22:02:56.414Z,26.05
2023-01-29T22:05:23.903Z,25.10
2023-01-29T22:07:51.203Z,27.80
2023-01-29T22:10:19.905Z,28.80
2023-01-29T22:12:48.265Z,26.20
2023-01-29T22:15:15.961Z,29.67
2023-01-29T22:17:43.796Z,22.92
2023-01-29T22:20:13.734Z,26.50
2023-01-29T22:22:41.535Z,26.70
2023-01-29T22:25:09.451Z,28.10
2023-01-29T22:27:37.240Z,29.38
2023-01-29T22:30:05.535Z,30.92
2023-01-29T22:32:33.044Z,28.83
2023-01-29T22:35:00.352Z,28.88
2023-01-29T22:37:27.714Z,31.48
2023-01-29T22:39:55.034Z,30.92
2023-01-29T22:42:22.305Z,28.58
2023-01-29T22:44:49.594Z,28.42
2023-01-29T22:47:16.929Z,31.13
2023-01-29T22:49:45.543Z,34.90
2023-01-29T22:52:13.684Z,27.67
2023-01-29T22:54:42.717Z,32.92
2023-01-29T22:57:11.348Z,29.90
2023-01-29T22:59:38.948Z,30.65
2023-01-29T23:02:07.405Z,31.77
2023-01-29T23:04:34.835Z,32.10
2023-01-29T23:07:02.713Z,28.88
2023-01-29T23:09:29.961Z,34.50
2023-01-29T23:11:57.433Z,29.15
2023-01-29T23:14:24.654Z,28.60
2023-01-29T23:16:51.991Z,30.35
2023-01-29T23:19:19.382Z,32.28
2023-01-29T23:21:46.992Z,30.85
2023-01-29T23:24:14.586Z,30.58
2023-01-29T23:27:00.375Z,29.33
2023-01-29T23:29:27.687Z,29.65
2023-01-29T23:31:55.047Z,26.88
2023-01-29T23:34:22.532Z,29.75
2023-01-29T23:36:49.998Z,27.10
2023-01-29T23:39:17.407Z,29.67
2023-01-29T23:41:44.656Z,28.77
2023-01-29T23:44:12.116Z,30.02
2023-01-29T23:46:39.550Z,30.05
2023-01-29T23:49:07.099Z,27.42
2023-01-29T23:51:34.406Z,28.80
2023-01-29T23:54:01.653Z,28.65
2023-01-29T23:56:28.900Z,24.83
2023-01-29T23:58:57.351Z,27.20
